sensor_id;sensor_type;location;lat;lon;timestamp;P1;durP1;ratioP1;P2;durP2;ratioP2
10586;SDS011;5341;47.606;7.576;2024-02-23T00:02:04;1.65;;;1.00;;
10586;SDS011;5341;47.606;7.576;2024-02-23T00:04:32;1.60;;;1.10;;
10586;SDS011;5341;47.606;7.576;2024-02-23T00:06:59;1.80;;;0.82;;
10586;SDS011;5341;47.606;7.576;2024-02-23T00:09:29;1.48;;;0.85;;
10586;SDS011;5341;47.606;7.576;2024-02-23T00:11:56;1.63;;;0.80;;
10586;SDS011;5341;47.606;7.576;2024-02-23T00:14:24;0.75;;;0.75;;
10586;SDS011;5341;47.606;7.576;2024-02-23T00:16:51;1.08;;;0.98;;
10586;SDS011;5341;47.606;7.576;2024-02-23T00:19:19;1.75;;;0.90;;
10586;SDS011;5341;47.606;7.576;2024-02-23T00:21:46;2.63;;;1.10;;
10586;SDS011;5341;47.606;7.576;2024-02-23T00:24:15;3.25;;;1.17;;
10586;SDS011;5341;47.606;7.576;2024-02-23T00:26:44;0.98;;;0.80;;
10586;SDS011;5341;47.606;7.576;2024-02-23T00:29:12;0.95;;;0.85;;
10586;SDS011;5341;47.606;7.576;2024-02-23T00:31:39;0.70;;;0.70;;
10586;SDS011;5341;47.606;7.576;2024-02-23T00:34:08;1.45;;;0.90;;
10586;SDS011;5341;47.606;7.576;2024-02-23T00:36:36;1.00;;;0.63;;
10586;SDS011;5341;47.606;7.576;2024-02-23T00:39:04;1.45;;;0.98;;
10586;SDS011;5341;47.606;7.576;2024-02-23T00:41:32;3.85;;;0.77;;
10586;SDS011;5341;47.606;7.576;2024-02-23T00:44:01;1.30;;;0.90;;
10586;SDS011;5341;47.606;7.576;2024-02-23T00:46:29;0.57;;;0.57;;
10586;SDS011;5341;47.606;7.576;2024-02-23T00:48:56;1.75;;;0.90;;
10586;SDS011;5341;47.606;7.576;2024-02-23T00:51:23;0.98;;;0.85;;
10586;SDS011;5341;47.606;7.576;2024-02-23T00:53:51;1.45;;;0.90;;
10586;SDS011;5341;47.606;7.576;2024-02-23T00:56:19;0.70;;;0.60;;
10586;SDS011;5341;47.606;7.576;2024-02-23T00:58:47;1.02;;;0.73;;
10586;SDS011;5341;47.606;7.576;2024-02-23T01:01:15;1.00;;;0.70;;
10586;SDS011;5341;47.606;7.576;2024-02-23T01:03:43;1.15;;;0.80;;
10586;SDS011;5341;47.606;7.576;2024-02-23T01:06:10;0.95;;;0.77;;
10586;SDS011;5341;47.606;7.576;2024-02-23T01:08:38;1.02;;;0.93;;
10586;SDS011;5341;47.606;7.576;2024-02-23T01:11:05;1.25;;;1.00;;
10586;SDS011;5341;47.606;7.576;2024-02-23T01:13:32;1.17;;;0.80;;
10586;SDS011;5341;47.606;7.576;2024-02-23T01:16:00;0.88;;;0.88;;
10586;SDS011;5341;47.606;7.576;2024-02-23T01:18:29;0.98;;;0.90;;
10586;SDS011;5341;47.606;7.576;2024-02-23T01:20:56;1.40;;;0.73;;
10586;SDS011;5341;47.606;7.576;2024-02-23T01:23:24;1.15;;;0.80;;
10586;SDS011;5341;47.606;7.576;2024-02-23T01:25:52;1.08;;;0.88;;
10586;SDS011;5341;47.606;7.576;2024-02-23T01:28:19;0.77;;;0.77;;
10586;SDS011;5341;47.606;7.576;2024-02-23T01:30:46;0.82;;;0.80;;
10586;SDS011;5341;47.606;7.576;2024-02-23T01:33:13;1.13;;;0.82;;
10586;SDS011;5341;47.606;7.576;2024-02-23T01:35:42;1.10;;;0.90;;
10586;SDS011;5341;47.606;7.576;2024-02-23T01:38:09;0.90;;;0.90;;
10586;SDS011;5341;47.606;7.576;2024-02-23T01:40:37;0.95;;;0.88;;
10586;SDS011;5341;47.606;7.576;2024-02-23T01:43:04;2.17;;;1.00;;
10586;SDS011;5341;47.606;7.576;2024-02-23T01:45:32;1.38;;;0.80;;
10586;SDS011;5341;47.606;7.576;2024-02-23T01:47:59;0.90;;;0.90;;
10586;SDS011;5341;47.606;7.576;2024-02-23T01:50:29;1.17;;;0.98;;
10586;SDS011;5341;47.606;7.576;2024-02-23T01:52:59;2.22;;;1.02;;
10586;SDS011;5341;47.606;7.576;2024-02-23T01:55:28;0.82;;;0.82;;
10586;SDS011;5341;47.606;7.576;2024-02-23T01:57:57;0.80;;;0.80;;
10586;SDS011;5341;47.606;7.576;2024-02-23T02:00:26;1.75;;;1.00;;
10586;SDS011;5341;47.606;7.576;2024-02-23T02:02:54;0.85;;;0.85;;
10586;SDS011;5341;47.606;7.576;2024-02-23T02:05:22;1.23;;;0.90;;
10586;SDS011;5341;47.606;7.576;2024-02-23T02:07:49;1.00;;;0.90;;
10586;SDS011;5341;47.606;7.576;2024-02-23T02:10:21;1.23;;;0.93;;
10586;SDS011;5341;47.606;7.576;2024-02-23T02:12:48;1.35;;;0.80;;
10586;SDS011;5341;47.606;7.576;2024-02-23T02:15:15;1.38;;;1.15;;
10586;SDS011;5341;47.606;7.576;2024-02-23T02:17:44;0.82;;;0.70;;
10586;SDS011;5341;47.606;7.576;2024-02-23T02:20:11;1.73;;;1.00;;
10586;SDS011;5341;47.606;7.576;2024-02-23T02:22:39;2.03;;;0.90;;
10586;SDS011;5341;47.606;7.576;2024-02-23T02:25:07;1.88;;;1.20;;
10586;SDS011;5341;47.606;7.576;2024-02-23T02:27:37;1.73;;;1.10;;
10586;SDS011;5341;47.606;7.576;2024-02-23T02:30:04;1.50;;;0.80;;
10586;SDS011;5341;47.606;7.576;2024-02-23T02:32:32;2.33;;;1.10;;
10586;SDS011;5341;47.606;7.576;2024-02-23T02:35:00;1.17;;;0.93;;
10586;SDS011;5341;47.606;7.576;2024-02-23T02:37:27;1.48;;;1.08;;
10586;SDS011;5341;47.606;7.576;2024-02-23T02:39:54;2.10;;;1.00;;
10586;SDS011;5341;47.606;7.576;2024-02-23T02:42:22;1.40;;;1.00;;
10586;SDS011;5341;47.606;7.576;2024-02-23T02:44:50;2.72;;;1.00;;
10586;SDS011;5341;47.606;7.576;2024-02-23T02:47:18;2.05;;;1.10;;
10586;SDS011;5341;47.606;7.576;2024-02-23T02:49:45;1.23;;;0.90;;
10586;SDS011;5341;47.606;7.576;2024-02-23T02:52:12;1.65;;;1.05;;
10586;SDS011;5341;47.606;7.576;2024-02-23T02:54:39;1.92;;;1.20;;
10586;SDS011;5341;47.606;7.576;2024-02-23T02:57:07;2.53;;;1.17;;
10586;SDS011;5341;47.606;7.576;2024-02-23T02:59:34;1.98;;;1.05;;
10586;SDS011;5341;47.606;7.576;2024-02-23T03:02:03;2.55;;;1.05;;
10586;SDS011;5341;47.606;7.576;2024-02-23T03:04:30;1.60;;;1.10;;
10586;SDS011;5341;47.606;7.576;2024-02-23T03:06:57;1.33;;;1.02;;
10586;SDS011;5341;47.606;7.576;2024-02-23T03:09:25;2.13;;;1.25;;
10586;SDS011;5341;47.606;7.576;2024-02-23T03:11:52;3.05;;;1.20;;
10586;SDS011;5341;47.606;7.576;2024-02-23T03:14:20;2.15;;;1.23;;
10586;SDS011;5341;47.606;7.576;2024-02-23T03:16:47;1.67;;;1.20;;
10586;SDS011;5341;47.606;7.576;2024-02-23T03:19:17;2.35;;;1.25;;
10586;SDS011;5341;47.606;7.576;2024-02-23T03:21:47;2.08;;;1.20;;
10586;SDS011;5341;47.606;7.576;2024-02-23T03:24:15;1.13;;;0.80;;
10586;SDS011;5341;47.606;7.576;2024-02-23T03:26:42;1.75;;;1.05;;
10586;SDS011;5341;47.606;7.576;2024-02-23T03:29:09;2.42;;;1.33;;
10586;SDS011;5341;47.606;7.576;2024-02-23T03:31:37;3.47;;;1.25;;
10586;SDS011;5341;47.606;7.576;2024-02-23T03:34:04;2.03;;;1.05;;
10586;SDS011;5341;47.606;7.576;2024-02-23T03:36:33;1.73;;;1.10;;
10586;SDS011;5341;47.606;7.576;2024-02-23T03:39:00;1.40;;;0.90;;
10586;SDS011;5341;47.606;7.576;2024-02-23T03:41:28;1.27;;;1.17;;
10586;SDS011;5341;47.606;7.576;2024-02-23T03:43:55;1.20;;;1.05;;
10586;SDS011;5341;47.606;7.576;2024-02-23T03:46:24;2.08;;;1.10;;
10586;SDS011;5341;47.606;7.576;2024-02-23T03:48:51;0.98;;;0.88;;
10586;SDS011;5341;47.606;7.576;2024-02-23T03:51:18;1.58;;;1.05;;
10586;SDS011;5341;47.606;7.576;2024-02-23T03:53:47;1.83;;;1.00;;
10586;SDS011;5341;47.606;7.576;2024-02-23T03:56:14;1.77;;;1.25;;
10586;SDS011;5341;47.606;7.576;2024-02-23T03:58:42;3.03;;;1.30;;
10586;SDS011;5341;47.606;7.576;2024-02-23T04:01:09;2.60;;;1.40;;
10586;SDS011;5341;47.606;7.576;2024-02-23T04:03:36;2.60;;;1.38;;
10586;SDS011;5341;47.606;7.576;2024-02-23T04:06:04;2.45;;;1.38;;
10586;SDS011;5341;47.606;7.576;2024-02-23T04:08:32;2.47;;;1.40;;
10586;SDS011;5341;47.606;7.576;2024-02-23T04:11:01;1.80;;;1.40;;
10586;SDS011;5341;47.606;7.576;2024-02-23T04:13:28;2.65;;;1.40;;
10586;SDS011;5341;47.606;7.576;2024-02-23T04:15:55;3.03;;;1.38;;
10586;SDS011;5341;47.606;7.576;2024-02-23T04:18:23;2.80;;;1.38;;
10586;SDS011;5341;47.606;7.576;2024-02-23T04:20:50;2.50;;;1.27;;
10586;SDS011;5341;47.606;7.576;2024-02-23T04:23:18;1.95;;;1.20;;
10586;SDS011;5341;47.606;7.576;2024-02-23T04:25:45;3.95;;;1.45;;
10586;SDS011;5341;47.606;7.576;2024-02-23T04:28:14;1.83;;;1.20;;
10586;SDS011;5341;47.606;7.576;2024-02-23T04:30:43;1.58;;;1.10;;
10586;SDS011;5341;47.606;7.576;2024-02-23T04:33:10;3.28;;;1.50;;
10586;SDS011;5341;47.606;7.576;2024-02-23T04:35:40;3.90;;;1.33;;
10586;SDS011;5341;47.606;7.576;2024-02-23T04:38:14;3.10;;;1.50;;
10586;SDS011;5341;47.606;7.576;2024-02-23T04:40:41;2.78;;;1.55;;
10586;SDS011;5341;47.606;7.576;2024-02-23T04:43:09;2.58;;;1.42;;
10586;SDS011;5341;47.606;7.576;2024-02-23T04:45:37;5.45;;;1.45;;
10586;SDS011;5341;47.606;7.576;2024-02-23T04:48:05;3.88;;;1.30;;
10586;SDS011;5341;47.606;7.576;2024-02-23T04:50:33;2.53;;;1.40;;
10586;SDS011;5341;47.606;7.576;2024-02-23T04:53:01;3.50;;;1.70;;
10586;SDS011;5341;47.606;7.576;2024-02-23T04:55:29;5.70;;;1.52;;
10586;SDS011;5341;47.606;7.576;2024-02-23T04:57:57;3.33;;;1.30;;
10586;SDS011;5341;47.606;7.576;2024-02-23T05:00:24;2.10;;;1.23;;
10586;SDS011;5341;47.606;7.576;2024-02-23T05:03:00;2.35;;;1.20;;
10586;SDS011;5341;47.606;7.576;2024-02-23T05:05:29;3.58;;;1.48;;
10586;SDS011;5341;47.606;7.576;2024-02-23T05:07:57;2.90;;;1.42;;
10586;SDS011;5341;47.606;7.576;2024-02-23T05:10:25;3.58;;;1.40;;
10586;SDS011;5341;47.606;7.576;2024-02-23T05:12:52;4.05;;;1.52;;
10586;SDS011;5341;47.606;7.576;2024-02-23T05:15:19;4.72;;;1.48;;
10586;SDS011;5341;47.606;7.576;2024-02-23T05:17:46;4.40;;;1.52;;
10586;SDS011;5341;47.606;7.576;2024-02-23T05:20:15;6.90;;;1.35;;
10586;SDS011;5341;47.606;7.576;2024-02-23T05:22:43;4.18;;;1.73;;
10586;SDS011;5341;47.606;7.576;2024-02-23T05:25:10;2.58;;;1.20;;
10586;SDS011;5341;47.606;7.576;2024-02-23T05:27:38;2.03;;;1.17;;
10586;SDS011;5341;47.606;7.576;2024-02-23T05:30:06;3.97;;;1.38;;
10586;SDS011;5341;47.606;7.576;2024-02-23T05:32:34;2.75;;;1.30;;
10586;SDS011;5341;47.606;7.576;2024-02-23T05:35:02;2.67;;;1.30;;
10586;SDS011;5341;47.606;7.576;2024-02-23T05:37:31;3.25;;;1.33;;
10586;SDS011;5341;47.606;7.576;2024-02-23T05:39:58;4.68;;;1.30;;
10586;SDS011;5341;47.606;7.576;2024-02-23T05:42:29;2.47;;;1.40;;
10586;SDS011;5341;47.606;7.576;2024-02-23T05:44:56;3.13;;;1.23;;
10586;SDS011;5341;47.606;7.576;2024-02-23T05:47:24;2.70;;;1.30;;
10586;SDS011;5341;47.606;7.576;2024-02-23T05:49:51;1.90;;;1.25;;
10586;SDS011;5341;47.606;7.576;2024-02-23T05:52:18;2.33;;;1.58;;
10586;SDS011;5341;47.606;7.576;2024-02-23T05:54:47;2.03;;;1.30;;
10586;SDS011;5341;47.606;7.576;2024-02-23T05:57:15;3.10;;;1.40;;
10586;SDS011;5341;47.606;7.576;2024-02-23T05:59:42;5.15;;;1.42;;
10586;SDS011;5341;47.606;7.576;2024-02-23T06:02:10;3.70;;;1.30;;
10586;SDS011;5341;47.606;7.576;2024-02-23T06:04:38;2.13;;;1.23;;
10586;SDS011;5341;47.606;7.576;2024-02-23T06:07:07;1.70;;;1.10;;
10586;SDS011;5341;47.606;7.576;2024-02-23T06:09:35;3.28;;;1.23;;
10586;SDS011;5341;47.606;7.576;2024-02-23T06:12:05;2.15;;;1.40;;
10586;SDS011;5341;47.606;7.576;2024-02-23T06:14:33;3.65;;;1.10;;
10586;SDS011;5341;47.606;7.576;2024-02-23T06:17:00;3.45;;;1.40;;
10586;SDS011;5341;47.606;7.576;2024-02-23T06:19:28;2.85;;;1.42;;
10586;SDS011;5341;47.606;7.576;2024-02-23T06:21:56;3.50;;;1.30;;
10586;SDS011;5341;47.606;7.576;2024-02-23T06:24:23;3.08;;;1.50;;
10586;SDS011;5341;47.606;7.576;2024-02-23T06:26:51;3.58;;;1.75;;
10586;SDS011;5341;47.606;7.576;2024-02-23T06:29:20;2.58;;;1.60;;
10586;SDS011;5341;47.606;7.576;2024-02-23T06:31:47;2.67;;;1.45;;
10586;SDS011;5341;47.606;7.576;2024-02-23T06:34:15;1.90;;;1.42;;
10586;SDS011;5341;47.606;7.576;2024-02-23T06:36:43;3.08;;;1.45;;
10586;SDS011;5341;47.606;7.576;2024-02-23T06:39:10;2.53;;;1.50;;
10586;SDS011;5341;47.606;7.576;2024-02-23T06:41:38;3.55;;;1.77;;
10586;SDS011;5341;47.606;7.576;2024-02-23T06:44:06;4.47;;;1.98;;
10586;SDS011;5341;47.606;7.576;2024-02-23T06:46:34;3.33;;;1.58;;
10586;SDS011;5341;47.606;7.576;2024-02-23T06:49:02;2.33;;;1.73;;
10586;SDS011;5341;47.606;7.576;2024-02-23T06:51:30;3.75;;;1.70;;
10586;SDS011;5341;47.606;7.576;2024-02-23T06:53:58;4.63;;;1.65;;
10586;SDS011;5341;47.606;7.576;2024-02-23T06:56:25;3.92;;;1.58;;
10586;SDS011;5341;47.606;7.576;2024-02-23T06:58:52;3.55;;;1.70;;
10586;SDS011;5341;47.606;7.576;2024-02-23T07:01:19;3.58;;;1.50;;
10586;SDS011;5341;47.606;7.576;2024-02-23T07:03:48;2.72;;;1.63;;
10586;SDS011;5341;47.606;7.576;2024-02-23T07:06:16;3.88;;;1.80;;
10586;SDS011;5341;47.606;7.576;2024-02-23T07:08:44;3.08;;;1.70;;
10586;SDS011;5341;47.606;7.576;2024-02-23T07:11:12;4.15;;;1.70;;
10586;SDS011;5341;47.606;7.576;2024-02-23T07:13:42;3.13;;;1.70;;
10586;SDS011;5341;47.606;7.576;2024-02-23T07:16:09;5.47;;;1.85;;
10586;SDS011;5341;47.606;7.576;2024-02-23T07:18:36;3.75;;;1.65;;
10586;SDS011;5341;47.606;7.576;2024-02-23T07:21:06;2.97;;;1.50;;
10586;SDS011;5341;47.606;7.576;2024-02-23T07:23:33;5.25;;;1.63;;
10586;SDS011;5341;47.606;7.576;2024-02-23T07:26:00;2.33;;;1.67;;
10586;SDS011;5341;47.606;7.576;2024-02-23T07:28:27;3.63;;;1.88;;
10586;SDS011;5341;47.606;7.576;2024-02-23T07:30:55;3.50;;;1.60;;
10586;SDS011;5341;47.606;7.576;2024-02-23T07:33:22;3.63;;;1.80;;
10586;SDS011;5341;47.606;7.576;2024-02-23T07:35:49;2.83;;;1.40;;
10586;SDS011;5341;47.606;7.576;2024-02-23T07:38:18;2.25;;;1.67;;
10586;SDS011;5341;47.606;7.576;2024-02-23T07:40:45;3.63;;;1.70;;
10586;SDS011;5341;47.606;7.576;2024-02-23T07:43:13;4.85;;;1.75;;
10586;SDS011;5341;47.606;7.576;2024-02-23T07:45:40;4.13;;;1.80;;
10586;SDS011;5341;47.606;7.576;2024-02-23T07:48:08;2.75;;;1.75;;
10586;SDS011;5341;47.606;7.576;2024-02-23T07:50:35;4.43;;;2.15;;
10586;SDS011;5341;47.606;7.576;2024-02-23T07:53:03;4.55;;;1.95;;
10586;SDS011;5341;47.606;7.576;2024-02-23T07:55:32;4.90;;;2.03;;
10586;SDS011;5341;47.606;7.576;2024-02-23T07:57:59;4.72;;;2.25;;
10586;SDS011;5341;47.606;7.576;2024-02-23T08:00:27;4.20;;;1.80;;
10586;SDS011;5341;47.606;7.576;2024-02-23T08:02:55;6.00;;;1.83;;
10586;SDS011;5341;47.606;7.576;2024-02-23T08:05:24;4.22;;;1.70;;
10586;SDS011;5341;47.606;7.576;2024-02-23T08:07:51;7.55;;;2.20;;
10586;SDS011;5341;47.606;7.576;2024-02-23T08:10:18;7.45;;;2.30;;
10586;SDS011;5341;47.606;7.576;2024-02-23T08:12:48;6.88;;;2.08;;
10586;SDS011;5341;47.606;7.576;2024-02-23T08:15:15;4.47;;;2.03;;
10586;SDS011;5341;47.606;7.576;2024-02-23T08:17:43;5.63;;;2.05;;
10586;SDS011;5341;47.606;7.576;2024-02-23T08:20:10;4.32;;;2.00;;
10586;SDS011;5341;47.606;7.576;2024-02-23T08:22:37;6.80;;;2.05;;
10586;SDS011;5341;47.606;7.576;2024-02-23T08:25:05;4.70;;;2.08;;
10586;SDS011;5341;47.606;7.576;2024-02-23T08:27:33;4.97;;;2.17;;
10586;SDS011;5341;47.606;7.576;2024-02-23T08:30:02;4.50;;;1.85;;
10586;SDS011;5341;47.606;7.576;2024-02-23T08:32:29;5.03;;;2.13;;
10586;SDS011;5341;47.606;7.576;2024-02-23T08:34:56;4.95;;;1.75;;
10586;SDS011;5341;47.606;7.576;2024-02-23T08:37:25;4.70;;;1.85;;
10586;SDS011;5341;47.606;7.576;2024-02-23T08:39:52;5.55;;;1.90;;
10586;SDS011;5341;47.606;7.576;2024-02-23T08:42:19;3.60;;;1.70;;
10586;SDS011;5341;47.606;7.576;2024-02-23T08:44:47;5.75;;;2.10;;
10586;SDS011;5341;47.606;7.576;2024-02-23T08:47:15;4.82;;;1.70;;
10586;SDS011;5341;47.606;7.576;2024-02-23T08:49:43;7.00;;;2.00;;
10586;SDS011;5341;47.606;7.576;2024-02-23T08:52:10;4.78;;;2.13;;
10586;SDS011;5341;47.606;7.576;2024-02-23T08:54:38;6.00;;;2.20;;
10586;SDS011;5341;47.606;7.576;2024-02-23T08:57:05;4.97;;;2.05;;
10586;SDS011;5341;47.606;7.576;2024-02-23T08:59:33;5.35;;;2.25;;
10586;SDS011;5341;47.606;7.576;2024-02-23T09:02:00;4.05;;;2.03;;
10586;SDS011;5341;47.606;7.576;2024-02-23T09:04:29;4.25;;;2.05;;
10586;SDS011;5341;47.606;7.576;2024-02-23T09:06:57;5.50;;;2.25;;
10586;SDS011;5341;47.606;7.576;2024-02-23T09:09:24;7.72;;;2.05;;
10586;SDS011;5341;47.606;7.576;2024-02-23T09:11:51;5.00;;;2.20;;
10586;SDS011;5341;47.606;7.576;2024-02-23T09:14:19;7.22;;;2.13;;
10586;SDS011;5341;47.606;7.576;2024-02-23T09:16:46;6.68;;;2.28;;
10586;SDS011;5341;47.606;7.576;2024-02-23T09:19:16;3.92;;;1.85;;
10586;SDS011;5341;47.606;7.576;2024-02-23T09:21:45;6.15;;;2.30;;
10586;SDS011;5341;47.606;7.576;2024-02-23T09:24:12;5.00;;;2.15;;
10586;SDS011;5341;47.606;7.576;2024-02-23T09:26:40;5.78;;;2.10;;
10586;SDS011;5341;47.606;7.576;2024-02-23T09:29:07;5.88;;;2.03;;
10586;SDS011;5341;47.606;7.576;2024-02-23T09:31:35;4.75;;;1.90;;
10586;SDS011;5341;47.606;7.576;2024-02-23T09:34:02;3.80;;;1.83;;
10586;SDS011;5341;47.606;7.576;2024-02-23T09:36:30;3.35;;;1.73;;
10586;SDS011;5341;47.606;7.576;2024-02-23T09:38:58;6.05;;;1.90;;
10586;SDS011;5341;47.606;7.576;2024-02-23T09:41:27;6.25;;;1.77;;
10586;SDS011;5341;47.606;7.576;2024-02-23T09:43:55;7.15;;;2.22;;
10586;SDS011;5341;47.606;7.576;2024-02-23T09:46:25;4.78;;;1.80;;
10586;SDS011;5341;47.606;7.576;2024-02-23T09:48:53;6.78;;;1.80;;
10586;SDS011;5341;47.606;7.576;2024-02-23T09:51:22;7.45;;;2.10;;
10586;SDS011;5341;47.606;7.576;2024-02-23T09:53:51;5.82;;;1.90;;
10586;SDS011;5341;47.606;7.576;2024-02-23T09:56:19;5.78;;;2.03;;
10586;SDS011;5341;47.606;7.576;2024-02-23T09:58:52;9.40;;;2.05;;
10586;SDS011;5341;47.606;7.576;2024-02-23T10:01:27;5.05;;;2.00;;
10586;SDS011;5341;47.606;7.576;2024-02-23T10:03:56;3.95;;;1.52;;
10586;SDS011;5341;47.606;7.576;2024-02-23T10:06:24;5.85;;;1.98;;
10586;SDS011;5341;47.606;7.576;2024-02-23T10:08:52;3.92;;;1.73;;
10586;SDS011;5341;47.606;7.576;2024-02-23T10:11:22;2.95;;;1.52;;
10586;SDS011;5341;47.606;7.576;2024-02-23T10:13:51;6.28;;;1.73;;
10586;SDS011;5341;47.606;7.576;2024-02-23T10:16:18;4.80;;;1.55;;
10586;SDS011;5341;47.606;7.576;2024-02-23T10:18:46;5.90;;;1.60;;
10586;SDS011;5341;47.606;7.576;2024-02-23T10:21:14;5.63;;;1.90;;
10586;SDS011;5341;47.606;7.576;2024-02-23T10:23:44;7.05;;;2.05;;
10586;SDS011;5341;47.606;7.576;2024-02-23T10:26:12;5.55;;;1.73;;
10586;SDS011;5341;47.606;7.576;2024-02-23T10:28:45;10.25;;;2.00;;
10586;SDS011;5341;47.606;7.576;2024-02-23T10:31:13;6.25;;;1.95;;
10586;SDS011;5341;47.606;7.576;2024-02-23T10:33:41;4.05;;;1.45;;
10586;SDS011;5341;47.606;7.576;2024-02-23T10:36:11;5.38;;;2.15;;
10586;SDS011;5341;47.606;7.576;2024-02-23T10:38:42;5.80;;;1.60;;
10586;SDS011;5341;47.606;7.576;2024-02-23T10:41:12;3.83;;;1.40;;
10586;SDS011;5341;47.606;7.576;2024-02-23T10:43:41;5.53;;;1.90;;
10586;SDS011;5341;47.606;7.576;2024-02-23T10:46:12;4.15;;;1.58;;
10586;SDS011;5341;47.606;7.576;2024-02-23T10:48:40;7.03;;;1.80;;
10586;SDS011;5341;47.606;7.576;2024-02-23T10:51:08;3.97;;;1.48;;
10586;SDS011;5341;47.606;7.576;2024-02-23T10:53:37;7.65;;;1.90;;
10586;SDS011;5341;47.606;7.576;2024-02-23T10:56:07;3.75;;;1.75;;
10586;SDS011;5341;47.606;7.576;2024-02-23T10:58:34;5.65;;;2.00;;
10586;SDS011;5341;47.606;7.576;2024-02-23T11:01:02;5.85;;;1.80;;
10586;SDS011;5341;47.606;7.576;2024-02-23T11:03:32;5.75;;;1.85;;
10586;SDS011;5341;47.606;7.576;2024-02-23T11:06:05;7.20;;;1.70;;
10586;SDS011;5341;47.606;7.576;2024-02-23T11:08:33;6.22;;;1.70;;
10586;SDS011;5341;47.606;7.576;2024-02-23T11:11:07;4.40;;;1.63;;
10586;SDS011;5341;47.606;7.576;2024-02-23T11:13:36;5.15;;;1.70;;
10586;SDS011;5341;47.606;7.576;2024-02-23T11:16:03;3.83;;;1.80;;
10586;SDS011;5341;47.606;7.576;2024-02-23T11:18:33;4.85;;;1.98;;
10586;SDS011;5341;47.606;7.576;2024-02-23T11:21:02;4.55;;;1.75;;
10586;SDS011;5341;47.606;7.576;2024-02-23T11:23:38;5.38;;;1.65;;
10586;SDS011;5341;47.606;7.576;2024-02-23T11:26:07;8.20;;;1.90;;
10586;SDS011;5341;47.606;7.576;2024-02-23T11:28:43;3.00;;;1.52;;
10586;SDS011;5341;47.606;7.576;2024-02-23T11:31:11;5.03;;;1.80;;
10586;SDS011;5341;47.606;7.576;2024-02-23T11:33:41;5.22;;;1.83;;
10586;SDS011;5341;47.606;7.576;2024-02-23T11:36:21;5.90;;;1.60;;
10586;SDS011;5341;47.606;7.576;2024-02-23T11:38:50;3.75;;;1.40;;
10586;SDS011;5341;47.606;7.576;2024-02-23T11:41:21;2.38;;;1.30;;
10586;SDS011;5341;47.606;7.576;2024-02-23T11:43:50;4.00;;;1.70;;
10586;SDS011;5341;47.606;7.576;2024-02-23T11:46:18;4.32;;;1.48;;
10586;SDS011;5341;47.606;7.576;2024-02-23T11:48:48;6.05;;;1.95;;
10586;SDS011;5341;47.606;7.576;2024-02-23T11:51:19;4.22;;;1.63;;
10586;SDS011;5341;47.606;7.576;2024-02-23T11:53:48;4.90;;;1.55;;
10586;SDS011;5341;47.606;7.576;2024-02-23T11:56:16;4.28;;;1.75;;
10586;SDS011;5341;47.606;7.576;2024-02-23T11:58:44;4.22;;;1.48;;
10586;SDS011;5341;47.606;7.576;2024-02-23T12:01:11;3.90;;;1.38;;
10586;SDS011;5341;47.606;7.576;2024-02-23T12:03:38;4.38;;;1.30;;
10586;SDS011;5341;47.606;7.576;2024-02-23T12:06:08;3.47;;;1.63;;
10586;SDS011;5341;47.606;7.576;2024-02-23T12:08:36;2.60;;;1.45;;
10586;SDS011;5341;47.606;7.576;2024-02-23T12:11:04;2.83;;;1.60;;
10586;SDS011;5341;47.606;7.576;2024-02-23T12:13:33;3.90;;;1.52;;
10586;SDS011;5341;47.606;7.576;2024-02-23T12:16:01;3.22;;;1.35;;
10586;SDS011;5341;47.606;7.576;2024-02-23T12:18:29;3.67;;;1.40;;
10586;SDS011;5341;47.606;7.576;2024-02-23T12:20:58;5.20;;;1.58;;
10586;SDS011;5341;47.606;7.576;2024-02-23T12:23:28;4.05;;;1.65;;
10586;SDS011;5341;47.606;7.576;2024-02-23T12:26:05;4.75;;;1.38;;
10586;SDS011;5341;47.606;7.576;2024-02-23T12:28:32;3.20;;;1.58;;
10586;SDS011;5341;47.606;7.576;2024-02-23T12:30:59;2.55;;;1.30;;
10586;SDS011;5341;47.606;7.576;2024-02-23T12:33:27;5.63;;;1.60;;
10586;SDS011;5341;47.606;7.576;2024-02-23T12:35:56;2.78;;;1.40;;
10586;SDS011;5341;47.606;7.576;2024-02-23T12:38:29;3.20;;;1.65;;
10586;SDS011;5341;47.606;7.576;2024-02-23T12:40:56;3.03;;;1.30;;
10586;SDS011;5341;47.606;7.576;2024-02-23T12:43:24;4.45;;;1.58;;
10586;SDS011;5341;47.606;7.576;2024-02-23T12:45:51;3.08;;;1.48;;
10586;SDS011;5341;47.606;7.576;2024-02-23T12:48:19;4.20;;;1.80;;
10586;SDS011;5341;47.606;7.576;2024-02-23T12:50:47;2.95;;;1.30;;
10586;SDS011;5341;47.606;7.576;2024-02-23T12:56:02;2.60;;;1.33;;
10586;SDS011;5341;47.606;7.576;2024-02-23T12:58:29;2.63;;;1.67;;
10586;SDS011;5341;47.606;7.576;2024-02-23T13:00:57;4.35;;;1.42;;
10586;SDS011;5341;47.606;7.576;2024-02-23T13:03:25;3.25;;;1.50;;
10586;SDS011;5341;47.606;7.576;2024-02-23T13:05:53;3.33;;;1.40;;
10586;SDS011;5341;47.606;7.576;2024-02-23T13:08:20;3.88;;;1.58;;
10586;SDS011;5341;47.606;7.576;2024-02-23T13:10:49;2.42;;;1.33;;
10586;SDS011;5341;47.606;7.576;2024-02-23T13:13:17;4.32;;;1.58;;
10586;SDS011;5341;47.606;7.576;2024-02-23T13:15:45;5.35;;;1.77;;
10586;SDS011;5341;47.606;7.576;2024-02-23T13:18:13;3.30;;;1.35;;
10586;SDS011;5341;47.606;7.576;2024-02-23T13:20:40;3.38;;;1.33;;
10586;SDS011;5341;47.606;7.576;2024-02-23T13:23:08;4.07;;;1.40;;
10586;SDS011;5341;47.606;7.576;2024-02-23T13:25:37;4.07;;;1.50;;
10586;SDS011;5341;47.606;7.576;2024-02-23T13:28:06;2.72;;;1.50;;
10586;SDS011;5341;47.606;7.576;2024-02-23T13:30:34;2.97;;;1.30;;
10586;SDS011;5341;47.606;7.576;2024-02-23T13:33:02;5.03;;;1.30;;
10586;SDS011;5341;47.606;7.576;2024-02-23T13:35:30;3.08;;;1.40;;
10586;SDS011;5341;47.606;7.576;2024-02-23T13:37:57;3.70;;;1.40;;
10586;SDS011;5341;47.606;7.576;2024-02-23T13:40:24;1.73;;;1.02;;
10586;SDS011;5341;47.606;7.576;2024-02-23T13:42:52;2.05;;;1.33;;
10586;SDS011;5341;47.606;7.576;2024-02-23T13:45:20;3.00;;;1.45;;
10586;SDS011;5341;47.606;7.576;2024-02-23T13:47:55;3.28;;;1.40;;
10586;SDS011;5341;47.606;7.576;2024-02-23T13:50:23;4.10;;;1.55;;
10586;SDS011;5341;47.606;7.576;2024-02-23T13:52:50;2.53;;;1.38;;
10586;SDS011;5341;47.606;7.576;2024-02-23T13:55:18;2.55;;;1.40;;
10586;SDS011;5341;47.606;7.576;2024-02-23T13:57:46;5.53;;;3.08;;
10586;SDS011;5341;47.606;7.576;2024-02-23T14:00:15;3.40;;;2.50;;
10586;SDS011;5341;47.606;7.576;2024-02-23T14:02:45;5.60;;;2.10;;
10586;SDS011;5341;47.606;7.576;2024-02-23T14:05:13;4.68;;;2.03;;
10586;SDS011;5341;47.606;7.576;2024-02-23T14:07:43;4.57;;;1.55;;
10586;SDS011;5341;47.606;7.576;2024-02-23T14:10:10;4.07;;;1.60;;
10586;SDS011;5341;47.606;7.576;2024-02-23T14:12:39;2.95;;;1.30;;
10586;SDS011;5341;47.606;7.576;2024-02-23T14:15:07;2.17;;;1.40;;
10586;SDS011;5341;47.606;7.576;2024-02-23T14:17:35;2.08;;;1.20;;
10586;SDS011;5341;47.606;7.576;2024-02-23T14:20:05;2.65;;;1.05;;
10586;SDS011;5341;47.606;7.576;2024-02-23T14:22:33;1.95;;;1.25;;
10586;SDS011;5341;47.606;7.576;2024-02-23T14:25:00;2.67;;;1.52;;
10586;SDS011;5341;47.606;7.576;2024-02-23T14:27:27;2.72;;;1.30;;
10586;SDS011;5341;47.606;7.576;2024-02-23T14:29:54;2.22;;;1.50;;
10586;SDS011;5341;47.606;7.576;2024-02-23T14:32:22;1.92;;;1.15;;
10586;SDS011;5341;47.606;7.576;2024-02-23T14:34:50;3.38;;;1.60;;
10586;SDS011;5341;47.606;7.576;2024-02-23T14:37:19;2.15;;;1.10;;
10586;SDS011;5341;47.606;7.576;2024-02-23T14:39:46;2.60;;;1.27;;
10586;SDS011;5341;47.606;7.576;2024-02-23T14:42:14;3.15;;;1.25;;
10586;SDS011;5341;47.606;7.576;2024-02-23T14:44:42;3.53;;;1.30;;
10586;SDS011;5341;47.606;7.576;2024-02-23T14:47:09;1.70;;;1.00;;
10586;SDS011;5341;47.606;7.576;2024-02-23T14:49:37;1.45;;;1.10;;
10586;SDS011;5341;47.606;7.576;2024-02-23T14:52:05;2.17;;;1.30;;
10586;SDS011;5341;47.606;7.576;2024-02-23T14:54:34;2.67;;;1.50;;
10586;SDS011;5341;47.606;7.576;2024-02-23T14:57:02;2.75;;;1.60;;
10586;SDS011;5341;47.606;7.576;2024-02-23T14:59:30;2.97;;;1.75;;
10586;SDS011;5341;47.606;7.576;2024-02-23T15:02:01;2.53;;;1.52;;
10586;SDS011;5341;47.606;7.576;2024-02-23T15:04:29;1.90;;;1.27;;
10586;SDS011;5341;47.606;7.576;2024-02-23T15:06:56;4.72;;;1.50;;
10586;SDS011;5341;47.606;7.576;2024-02-23T15:09:23;2.83;;;1.30;;